createdAt,value
2019-03-01T00:00:36.592Z,18.69
2019-03-01T00:01:35.682Z,18.69
2019-03-01T00:02:32.311Z,18.69
2019-03-01T00:03:29.029Z,18.69
2019-03-01T00:04:25.654Z,18.69
2019-03-01T00:05:22.319Z,18.69
2019-03-01T00:06:19.017Z,18.62
2019-03-01T00:07:15.660Z,18.69
2019-03-01T00:08:12.523Z,18.62
2019-03-01T00:09:09.442Z,18.62
2019-03-01T00:10:06.150Z,18.62
2019-03-01T00:11:02.748Z,18.69
2019-03-01T00:11:59.405Z,18.62
2019-03-01T00:12:56.104Z,18.62
2019-03-01T00:13:52.914Z,18.62
2019-03-01T00:14:49.509Z,18.62
2019-03-01T00:15:46.114Z,18.62
2019-03-01T00:16:42.778Z,18.62
2019-03-01T00:17:39.363Z,18.62
2019-03-01T00:18:35.959Z,18.62
2019-03-01T00:19:32.585Z,18.62
2019-03-01T00:20:29.222Z,18.62
2019-03-01T00:21:25.934Z,18.62
2019-03-01T00:22:22.545Z,18.62
2019-03-01T00:23:19.238Z,18.62
2019-03-01T00:24:15.834Z,18.62
2019-03-01T00:25:12.474Z,18.62
2019-03-01T00:26:09.275Z,18.62
2019-03-01T00:27:06.003Z,18.62
2019-03-01T00:28:02.608Z,18.62
2019-03-01T00:28:59.207Z,18.62
2019-03-01T00:29:56.003Z,18.62
2019-03-01T00:30:52.682Z,18.62
2019-03-01T00:31:49.301Z,18.62
2019-03-01T00:32:45.951Z,18.62
2019-03-01T00:33:43.006Z,18.56
2019-03-01T00:34:39.635Z,18.62
2019-03-01T00:35:36.482Z,18.56
2019-03-01T00:36:33.187Z,18.62
2019-03-01T00:37:29.907Z,18.56
2019-03-01T00:38:26.609Z,18.56
2019-03-01T00:39:23.247Z,18.56
2019-03-01T00:40:19.940Z,18.56
2019-03-01T00:41:16.821Z,18.56
2019-03-01T00:42:13.547Z,18.56
2019-03-01T00:43:10.161Z,18.56
2019-03-01T00:44:06.942Z,18.56
2019-03-01T00:45:03.560Z,18.56
2019-03-01T00:46:00.157Z,18.56
2019-03-01T00:46:56.765Z,18.56
2019-03-01T00:47:53.370Z,18.56
2019-03-01T00:48:49.962Z,18.56
2019-03-01T00:49:46.560Z,18.56
2019-03-01T00:50:43.480Z,18.56
2019-03-01T00:51:40.106Z,18.56
2019-03-01T00:52:36.731Z,18.56
2019-03-01T00:53:33.387Z,18.56
2019-03-01T00:54:30.086Z,18.56
2019-03-01T00:55:26.779Z,18.56
2019-03-01T00:56:24.019Z,18.56
2019-03-01T00:57:20.961Z,18.56
2019-03-01T00:58:17.565Z,18.56
2019-03-01T00:59:14.206Z,18.56
2019-03-01T01:00:10.806Z,18.56
2019-03-01T01:01:07.422Z,18.56
2019-03-01T01:02:04.175Z,18.56
2019-03-01T01:03:00.809Z,18.56
2019-03-01T01:03:57.424Z,18.50
2019-03-01T01:04:54.025Z,18.50
2019-03-01T01:05:50.654Z,18.56
2019-03-01T01:06:47.241Z,18.50
2019-03-01T01:07:44.247Z,18.50
2019-03-01T01:08:40.889Z,18.50
2019-03-01T01:09:37.493Z,18.50
2019-03-01T01:10:34.266Z,18.50
2019-03-01T01:11:30.949Z,18.50
2019-03-01T01:12:27.551Z,18.50
2019-03-01T01:13:24.236Z,18.50
2019-03-01T01:14:21.253Z,18.50
2019-03-01T01:15:17.881Z,18.50
2019-03-01T01:16:14.662Z,18.50
2019-03-01T01:17:11.275Z,18.50
2019-03-01T01:18:07.959Z,18.50
2019-03-01T01:19:04.582Z,18.50
2019-03-01T01:20:01.183Z,18.50
2019-03-01T01:20:57.802Z,18.50
2019-03-01T01:21:54.449Z,18.50
2019-03-01T01:22:51.211Z,18.50
2019-03-01T01:23:47.834Z,18.50
2019-03-01T01:24:44.441Z,18.50
2019-03-01T01:25:41.043Z,18.50
2019-03-01T01:26:37.643Z,18.50
2019-03-01T01:27:34.675Z,18.50
2019-03-01T01:28:31.397Z,18.50
2019-03-01T01:29:28.042Z,18.50
2019-03-01T01:30:24.637Z,18.50
2019-03-01T01:31:21.271Z,18.50
2019-03-01T01:32:17.990Z,18.50
2019-03-01T01:33:14.939Z,18.50
2019-03-01T01:34:11.646Z,18.50
2019-03-01T01:35:08.355Z,18.44
2019-03-01T01:36:05.127Z,18.50
2019-03-01T01:37:01.735Z,18.44
2019-03-01T01:37:58.328Z,18.44
2019-03-01T01:38:54.916Z,18.44
2019-03-01T01:39:51.543Z,18.44
2019-03-01T01:40:48.334Z,18.44
2019-03-01T01:41:44.982Z,18.44
2019-03-01T01:42:41.583Z,18.44
2019-03-01T01:43:38.270Z,18.44
2019-03-01T01:44:34.879Z,18.44
2019-03-01T01:45:31.770Z,18.44
2019-03-01T01:46:28.388Z,18.44
2019-03-01T01:47:25.106Z,18.44
2019-03-01T01:48:21.740Z,18.44
2019-03-01T01:49:18.495Z,18.44
2019-03-01T01:50:15.223Z,18.44
2019-03-01T01:51:11.832Z,18.44
2019-03-01T01:52:08.534Z,18.44
2019-03-01T01:53:05.250Z,18.44
2019-03-01T01:54:01.954Z,18.44
2019-03-01T01:54:58.883Z,18.44
2019-03-01T01:55:55.516Z,18.44
2019-03-01T01:56:52.114Z,18.44
2019-03-01T01:57:49.079Z,18.44
2019-03-01T01:58:45.689Z,18.44
2019-03-01T01:59:42.301Z,18.44
2019-03-01T02:00:39.310Z,18.44
2019-03-01T02:01:35.983Z,18.44
2019-03-01T02:02:32.571Z,18.44
2019-03-01T02:03:29.190Z,18.44
2019-03-01T02:04:25.783Z,18.44
2019-03-01T02:05:22.407Z,18.44
2019-03-01T02:06:19.163Z,18.44
2019-03-01T02:07:15.778Z,18.44
2019-03-01T02:08:12.795Z,18.44
2019-03-01T02:09:09.998Z,18.44
2019-03-01T02:10:06.975Z,18.44
2019-03-01T02:11:03.562Z,18.44
2019-03-01T02:12:00.209Z,18.44
2019-03-01T02:12:57.013Z,18.44
2019-03-01T02:13:53.650Z,18.44
2019-03-01T02:14:50.243Z,18.37
2019-03-01T02:15:46.845Z,18.44
2019-03-01T02:16:43.468Z,18.44
2019-03-01T02:17:40.054Z,18.44
2019-03-01T02:18:36.674Z,18.44
2019-03-01T02:19:33.414Z,18.37
2019-03-01T02:20:30.090Z,18.44
2019-03-01T02:21:26.715Z,18.37
2019-03-01T02:22:23.384Z,18.44
2019-03-01T02:23:20.074Z,18.37
2019-03-01T02:24:16.682Z,18.37
2019-03-01T02:25:13.510Z,18.37
2019-03-01T02:26:10.143Z,18.37
2019-03-01T02:27:06.775Z,18.37
2019-03-01T02:28:03.387Z,18.37
2019-03-01T02:29:00.077Z,18.37
2019-03-01T02:29:56.735Z,18.37
2019-03-01T02:30:53.442Z,18.37
2019-03-01T02:31:50.376Z,18.37
2019-03-01T02:32:46.966Z,18.37
2019-03-01T02:33:43.556Z,18.37
2019-03-01T02:34:40.263Z,18.37
2019-03-01T02:35:37.122Z,18.37
2019-03-01T02:36:33.743Z,18.37
2019-03-01T02:37:30.372Z,18.37
2019-03-01T02:38:27.347Z,18.37
2019-03-01T02:39:23.951Z,18.37
2019-03-01T02:40:20.562Z,18.37
2019-03-01T02:41:17.844Z,18.37
2019-03-01T02:42:14.465Z,18.37
2019-03-01T02:43:11.094Z,18.37
2019-03-01T02:44:07.736Z,18.37
2019-03-01T02:45:04.350Z,18.37
2019-03-01T02:46:01.385Z,18.37
2019-03-01T02:46:57.982Z,18.37
2019-03-01T02:47:54.730Z,18.37
2019-03-01T02:48:51.878Z,18.37
2019-03-01T02:49:48.480Z,18.37
2019-03-01T02:50:45.174Z,18.37
2019-03-01T02:51:41.875Z,18.37
2019-03-01T02:52:38.524Z,18.37
2019-03-01T02:53:35.330Z,18.37
2019-03-01T02:54:31.934Z,18.37
2019-03-01T02:55:28.639Z,18.37
2019-03-01T02:56:25.520Z,18.37
2019-03-01T02:57:22.197Z,18.37
2019-03-01T02:58:18.820Z,18.37
2019-03-01T02:59:15.427Z,18.37
2019-03-01T03:00:12.745Z,18.37
2019-03-01T03:01:09.434Z,18.37
2019-03-01T03:02:06.041Z,18.37
2019-03-01T03:03:02.654Z,18.37
2019-03-01T03:03:59.266Z,18.37
2019-03-01T03:04:56.042Z,18.31
2019-03-01T03:06:24.198Z,18.31
2019-03-01T03:07:35.530Z,18.37
2019-03-01T03:08:32.397Z,18.31
2019-03-01T03:09:29.030Z,18.37
2019-03-01T03:10:25.799Z,18.31
2019-03-01T03:11:22.548Z,18.31
2019-03-01T03:12:20.385Z,18.31
2019-03-01T03:13:17.006Z,18.31
2019-03-01T03:14:13.612Z,18.31
2019-03-01T03:15:10.290Z,18.31
2019-03-01T03:16:06.897Z,18.31
2019-03-01T03:17:03.975Z,18.31
2019-03-01T03:18:00.599Z,18.31
2019-03-01T03:18:57.315Z,18.31
2019-03-01T03:19:54.179Z,18.31
2019-03-01T03:20:50.773Z,18.31
2019-03-01T03:21:47.619Z,18.31
2019-03-01T03:22:44.303Z,18.31
2019-03-01T03:23:41.063Z,18.31
2019-03-01T03:24:37.758Z,18.31
2019-03-01T03:25:34.451Z,18.31
2019-03-01T03:26:31.050Z,18.31
2019-03-01T03:27:28.103Z,18.31
2019-03-01T03:28:24.739Z,18.31
2019-03-01T03:29:21.471Z,18.31
2019-03-01T03:30:18.073Z,18.31
2019-03-01T03:31:14.779Z,18.31
2019-03-01T03:32:11.868Z,18.31
2019-03-01T03:33:08.479Z,18.31
2019-03-01T03:34:05.319Z,18.31
2019-03-01T03:35:01.991Z,18.31
2019-03-01T03:35:58.590Z,18.31
2019-03-01T03:36:55.429Z,18.31
2019-03-01T03:37:52.122Z,18.31
2019-03-01T03:38:48.742Z,18.31
2019-03-01T03:39:45.366Z,18.31
2019-03-01T03:40:41.955Z,18.31
2019-03-01T03:41:38.578Z,18.31
2019-03-01T03:42:35.367Z,18.31
2019-03-01T03:43:32.057Z,18.31
2019-03-01T03:44:28.664Z,18.31
2019-03-01T03:45:25.270Z,18.31
2019-03-01T03:46:21.864Z,18.31
2019-03-01T03:47:18.463Z,18.31
2019-03-01T03:48:15.073Z,18.31
2019-03-01T03:49:11.882Z,18.31
2019-03-01T03:50:08.496Z,18.31
2019-03-01T03:51:05.179Z,18.31
2019-03-01T03:52:01.895Z,18.31
2019-03-01T03:52:58.575Z,18.31
2019-03-01T03:53:55.271Z,18.31
2019-03-01T03:54:51.995Z,18.25
2019-03-01T03:55:48.605Z,18.31
2019-03-01T03:56:45.215Z,18.31
2019-03-01T03:57:42.012Z,18.25
2019-03-01T03:58:38.602Z,18.25
2019-03-01T03:59:35.211Z,18.25
2019-03-01T04:00:32.068Z,18.25
2019-03-01T04:01:28.758Z,18.25
2019-03-01T04:02:25.438Z,18.25
2019-03-01T04:03:22.095Z,18.25
2019-03-01T04:04:18.702Z,18.25
2019-03-01T04:05:15.299Z,18.25
2019-03-01T04:06:12.031Z,18.25
2019-03-01T04:07:08.655Z,18.25
2019-03-01T04:08:05.267Z,18.25
2019-03-01T04:09:02.479Z,18.25
2019-03-01T04:09:59.210Z,18.25
2019-03-01T04:10:55.913Z,18.25
2019-03-01T04:11:52.603Z,18.25
2019-03-01T04:12:49.450Z,18.25
2019-03-01T04:13:46.151Z,18.25
2019-03-01T04:14:42.847Z,18.25
2019-03-01T04:15:39.476Z,18.25
2019-03-01T04:16:36.231Z,18.25
2019-03-01T04:17:32.835Z,18.25
2019-03-01T04:18:29.466Z,18.25
2019-03-01T04:19:26.155Z,18.25
2019-03-01T04:20:22.787Z,18.25
2019-03-01T04:21:19.515Z,18.25
2019-03-01T04:22:16.196Z,18.25
2019-03-01T04:23:12.789Z,18.25
2019-03-01T04:24:09.392Z,18.25
2019-03-01T04:25:05.994Z,18.25
2019-03-01T04:26:02.599Z,18.25
2019-03-01T04:26:59.198Z,18.25
2019-03-01T04:27:56.071Z,18.25
2019-03-01T04:28:52.679Z,18.25
2019-03-01T04:29:49.618Z,18.25
2019-03-01T04:30:46.267Z,18.25
2019-03-01T04:31:42.869Z,18.25
2019-03-01T04:32:39.565Z,18.25
2019-03-01T04:33:36.451Z,18.25
2019-03-01T04:34:33.154Z,18.25
2019-03-01T04:35:29.951Z,18.25
2019-03-01T04:36:26.642Z,18.25
2019-03-01T04:37:23.238Z,18.25
2019-03-01T04:38:19.848Z,18.25
2019-03-01T04:39:16.547Z,18.25
2019-03-01T04:40:13.177Z,18.25
2019-03-01T04:41:10.194Z,18.25
2019-03-01T04:42:06.800Z,18.25
2019-03-01T04:43:03.564Z,18.25
2019-03-01T04:44:00.431Z,18.25
2019-03-01T04:44:57.042Z,18.25
2019-03-01T04:45:53.686Z,18.25
2019-03-01T04:46:50.384Z,18.25
2019-03-01T04:47:46.977Z,18.25
2019-03-01T04:48:43.566Z,18.19
2019-03-01T04:49:40.181Z,18.19
2019-03-01T04:50:36.887Z,18.25
2019-03-01T04:51:39.856Z,18.19
2019-03-01T04:52:32.168Z,18.19
2019-03-01T04:53:28.760Z,18.19
2019-03-01T04:54:25.366Z,18.19
2019-03-01T04:55:21.962Z,18.25
2019-03-01T04:56:18.565Z,18.19
2019-03-01T04:57:15.231Z,18.19
2019-03-01T04:58:12.150Z,18.19
2019-03-01T04:59:08.753Z,18.19
2019-03-01T05:00:05.346Z,18.19
2019-03-01T05:01:02.227Z,18.19
2019-03-01T05:01:58.937Z,18.19
2019-03-01T05:02:55.780Z,18.19
2019-03-01T05:03:52.430Z,18.19
2019-03-01T05:04:49.036Z,18.19
2019-03-01T05:05:45.618Z,18.19
2019-03-01T05:06:42.226Z,18.19
2019-03-01T05:07:38.845Z,18.19
2019-03-01T05:08:35.465Z,18.19
2019-03-01T05:09:32.231Z,18.19
2019-03-01T05:10:28.922Z,18.19
2019-03-01T05:11:25.514Z,18.19
2019-03-01T05:12:22.143Z,18.19
2019-03-01T05:13:18.726Z,18.19
2019-03-01T05:14:15.330Z,18.19
2019-03-01T05:15:14.511Z,18.19
2019-03-01T05:16:11.061Z,18.19
2019-03-01T05:17:07.829Z,18.19
2019-03-01T05:18:04.518Z,18.19
2019-03-01T05:19:01.118Z,18.19
2019-03-01T05:19:57.714Z,18.19
2019-03-01T05:20:54.614Z,18.19
2019-03-01T05:21:51.218Z,18.19
2019-03-01T05:22:47.831Z,18.19
2019-03-01T05:23:44.466Z,18.19
2019-03-01T05:24:41.093Z,18.19
2019-03-01T05:25:37.866Z,18.19
2019-03-01T05:26:34.580Z,18.19
2019-03-01T05:27:31.260Z,18.19
2019-03-01T05:28:27.983Z,18.19
2019-03-01T05:29:24.856Z,18.19
2019-03-01T05:30:21.812Z,18.19
2019-03-01T05:31:18.842Z,18.19
2019-03-01T05:32:15.463Z,18.19
2019-03-01T05:33:12.338Z,18.19
2019-03-01T05:34:09.022Z,18.19
2019-03-01T05:35:05.649Z,18.19
2019-03-01T05:36:02.246Z,18.19
2019-03-01T05:36:58.850Z,18.19
2019-03-01T05:37:55.472Z,18.19
2019-03-01T05:38:52.229Z,18.19
2019-03-01T05:39:49.366Z,18.19
2019-03-01T05:40:45.969Z,18.19
2019-03-01T05:41:42.567Z,18.19
2019-03-01T05:42:39.176Z,18.19
2019-03-01T05:43:35.800Z,18.19
2019-03-01T05:44:32.750Z,18.12
2019-03-01T05:45:29.350Z,18.19
2019-03-01T05:46:25.954Z,18.19
2019-03-01T05:47:22.559Z,18.12
2019-03-01T05:48:19.181Z,18.12
2019-03-01T05:49:15.917Z,18.19
2019-03-01T05:50:12.530Z,18.12
2019-03-01T05:51:09.229Z,18.19
2019-03-01T05:52:06.008Z,18.12
2019-03-01T05:53:02.803Z,18.12
2019-03-01T05:53:59.410Z,18.12
2019-03-01T05:54:56.013Z,18.12
2019-03-01T05:55:52.623Z,18.12
2019-03-01T05:56:49.218Z,18.12
2019-03-01T05:57:46.078Z,18.12
2019-03-01T05:58:42.803Z,18.12
2019-03-01T05:59:39.395Z,18.12
2019-03-01T06:00:35.990Z,18.12
2019-03-01T06:01:32.871Z,18.12
2019-03-01T06:02:29.470Z,18.12
2019-03-01T06:03:26.142Z,18.12
2019-03-01T06:04:22.779Z,18.12
2019-03-01T06:05:19.375Z,18.12
2019-03-01T06:06:16.120Z,18.12
2019-03-01T06:07:12.822Z,18.12
2019-03-01T06:08:09.427Z,18.12
2019-03-01T06:09:06.254Z,18.12
2019-03-01T06:10:02.956Z,18.12
2019-03-01T06:10:59.579Z,18.12
2019-03-01T06:11:56.909Z,18.12
2019-03-01T06:12:53.603Z,18.12
2019-03-01T06:13:50.194Z,18.12
2019-03-01T06:14:46.816Z,18.12
2019-03-01T06:15:43.454Z,18.12
2019-03-01T06:16:40.343Z,18.12
2019-03-01T06:17:36.947Z,18.12
2019-03-01T06:18:33.545Z,18.12
2019-03-01T06:19:30.271Z,18.12
2019-03-01T06:20:27.078Z,18.12
2019-03-01T06:21:23.700Z,18.12
2019-03-01T06:22:20.402Z,18.12
2019-03-01T06:23:17.002Z,18.12
2019-03-01T06:24:13.607Z,18.12
2019-03-01T06:25:10.491Z,18.12
2019-03-01T06:26:07.524Z,18.12
2019-03-01T06:27:04.221Z,18.12
2019-03-01T06:28:00.833Z,18.12
2019-03-01T06:28:57.461Z,18.12
2019-03-01T06:29:54.218Z,18.12
2019-03-01T06:30:52.115Z,17.94
2019-03-01T06:31:48.975Z,17.31
2019-03-01T06:32:45.598Z,17.06
2019-03-01T06:33:42.718Z,17.12
2019-03-01T06:34:39.456Z,17.81
2019-03-01T06:35:36.179Z,19.31
2019-03-01T06:36:32.792Z,21.62
2019-03-01T06:37:29.504Z,24.19
2019-03-01T06:38:48.806Z,26.44
2019-03-01T06:39:52.084Z,28.87
2019-03-01T06:40:52.838Z,30.19
2019-03-01T06:41:49.851Z,31.12
2019-03-01T06:42:46.560Z,31.75
2019-03-01T06:43:43.242Z,32.19
2019-03-01T06:44:39.838Z,32.56
2019-03-01T06:45:36.451Z,32.88
2019-03-01T06:46:33.090Z,33.25
2019-03-01T06:47:29.735Z,33.56
2019-03-01T06:48:35.861Z,33.94
2019-03-01T06:49:50.530Z,34.31
2019-03-01T06:50:53.994Z,34.81
2019-03-01T06:51:50.964Z,35.31
2019-03-01T06:52:47.638Z,35.75
2019-03-01T06:53:44.260Z,36.13
2019-03-01T06:54:41.246Z,36.44
2019-03-01T06:55:37.975Z,36.81
2019-03-01T06:56:34.757Z,37.06
2019-03-01T06:57:31.451Z,37.13
2019-03-01T06:58:28.114Z,36.81
2019-03-01T06:59:25.092Z,36.56
2019-03-01T07:00:21.691Z,36.25
2019-03-01T07:01:20.191Z,36.00
2019-03-01T07:02:21.139Z,35.81
2019-03-01T07:03:17.743Z,35.63
2019-03-01T07:04:15.491Z,35.44
2019-03-01T07:05:12.154Z,35.13
2019-03-01T07:06:08.851Z,34.69
2019-03-01T07:07:05.458Z,34.06
2019-03-01T07:08:02.142Z,33.19
2019-03-01T07:08:58.878Z,32.13
2019-03-01T07:09:55.583Z,30.94
2019-03-01T07:10:52.286Z,29.87
2019-03-01T07:11:48.914Z,29.31
2019-03-01T07:12:45.749Z,29.87
2019-03-01T07:13:42.997Z,31.25
2019-03-01T07:14:39.810Z,33.00
2019-03-01T07:15:36.430Z,34.56
2019-03-01T07:16:33.042Z,35.63
2019-03-01T07:17:29.760Z,36.00
2019-03-01T07:18:26.530Z,36.00
2019-03-01T07:19:23.216Z,35.88
2019-03-01T07:20:19.830Z,35.69
2019-03-01T07:21:16.442Z,35.56
2019-03-01T07:22:13.099Z,35.31
2019-03-01T07:23:09.847Z,35.00
2019-03-01T07:24:06.499Z,34.50
2019-03-01T07:25:03.150Z,33.81
2019-03-01T07:25:59.747Z,33.00
2019-03-01T07:26:56.833Z,32.00
2019-03-01T07:27:53.762Z,30.88
2019-03-01T07:28:50.385Z,29.87
2019-03-01T07:29:47.254Z,29.31
2019-03-01T07:30:43.932Z,29.81
2019-03-01T07:31:40.544Z,31.19
2019-03-01T07:32:37.139Z,32.88
2019-03-01T07:33:33.741Z,34.50
2019-03-01T07:34:30.347Z,35.56
2019-03-01T07:35:27.207Z,35.94
2019-03-01T07:36:23.814Z,35.94
2019-03-01T07:37:21.958Z,35.81
2019-03-01T07:38:18.810Z,35.63
2019-03-01T07:39:15.490Z,35.38
2019-03-01T07:40:12.187Z,35.06
2019-03-01T07:41:08.936Z,34.63
2019-03-01T07:42:05.532Z,34.00
2019-03-01T07:43:02.131Z,33.25
2019-03-01T07:43:58.758Z,32.31
2019-03-01T07:44:55.377Z,31.31
2019-03-01T07:45:52.026Z,30.31
2019-03-01T07:46:52.919Z,29.50
2019-03-01T07:47:47.443Z,29.50
2019-03-01T07:48:44.068Z,30.50
2019-03-01T07:49:41.035Z,32.00
2019-03-01T07:50:37.771Z,33.63
2019-03-01T07:51:36.003Z,35.06
2019-03-01T07:52:32.902Z,35.75
2019-03-01T07:53:29.887Z,35.88
2019-03-01T07:54:26.560Z,35.75
2019-03-01T07:55:24.969Z,35.63
2019-03-01T07:56:21.884Z,35.31
2019-03-01T07:57:18.570Z,34.94
2019-03-01T07:58:15.201Z,34.44
2019-03-01T07:59:12.290Z,33.81
2019-03-01T08:00:10.836Z,33.06
2019-03-01T08:01:07.643Z,32.13
2019-03-01T08:02:04.998Z,31.12
2019-03-01T08:03:01.774Z,30.12
2019-03-01T08:03:58.359Z,29.44
2019-03-01T08:04:55.016Z,29.69
2019-03-01T08:05:52.094Z,30.81
2019-03-01T08:06:49.664Z,32.44
2019-03-01T08:07:55.809Z,34.06
2019-03-01T08:08:45.098Z,35.25
2019-03-01T08:09:44.918Z,35.69
2019-03-01T08:10:40.326Z,35.75
2019-03-01T08:11:36.940Z,35.63
2019-03-01T08:12:33.532Z,35.44
2019-03-01T08:13:30.150Z,35.13
2019-03-01T08:14:28.002Z,34.75
2019-03-01T08:15:25.498Z,34.19
2019-03-01T08:16:22.202Z,33.50
2019-03-01T08:17:19.499Z,32.75
2019-03-01T08:18:16.653Z,31.81
2019-03-01T08:19:17.090Z,30.88
2019-03-01T08:20:11.888Z,29.94
2019-03-01T08:21:10.057Z,29.44
2019-03-01T08:22:07.043Z,29.87
2019-03-01T08:23:04.180Z,31.12
2019-03-01T08:24:00.882Z,32.75
2019-03-01T08:24:57.578Z,34.25
2019-03-01T08:25:55.600Z,35.31
2019-03-01T08:26:52.691Z,35.69
2019-03-01T08:27:50.410Z,35.69
2019-03-01T08:28:47.640Z,35.56
2019-03-01T08:29:44.347Z,35.31
2019-03-01T08:30:42.492Z,34.94
2019-03-01T08:31:39.561Z,34.44
2019-03-01T08:32:36.717Z,33.81
2019-03-01T08:33:33.438Z,33.06
2019-03-01T08:34:30.135Z,32.19
2019-03-01T08:35:28.350Z,31.31
2019-03-01T08:36:25.267Z,30.37
2019-03-01T08:37:22.185Z,29.63
2019-03-01T08:38:19.186Z,29.56
2019-03-01T08:39:15.823Z,30.50
2019-03-01T08:40:14.656Z,31.94
2019-03-01T08:41:11.022Z,33.56
2019-03-01T08:42:08.011Z,34.94
2019-03-01T08:43:04.626Z,35.56
2019-03-01T08:44:01.582Z,35.75
2019-03-01T08:44:59.324Z,35.63
2019-03-01T08:45:56.177Z,35.44
2019-03-01T08:46:52.947Z,35.13
2019-03-01T08:47:49.824Z,34.63
2019-03-01T08:48:46.544Z,34.06
2019-03-01T08:49:43.157Z,33.44
2019-03-01T08:50:40.145Z,32.63
2019-03-01T08:51:36.853Z,31.81
2019-03-01T08:52:33.562Z,30.94
2019-03-01T08:53:30.193Z,30.06
2019-03-01T08:54:27.663Z,29.56
2019-03-01T08:55:24.420Z,29.94
2019-03-01T08:56:26.119Z,31.00
2019-03-01T08:57:22.707Z,32.56
2019-03-01T08:58:18.447Z,34.06
2019-03-01T08:59:17.657Z,35.19
2019-03-01T09:00:13.882Z,35.63
2019-03-01T09:01:10.647Z,35.69
2019-03-01T09:02:07.723Z,35.44
2019-03-01T09:03:04.490Z,35.13
2019-03-01T09:04:01.117Z,34.63
2019-03-01T09:04:57.839Z,34.13
2019-03-01T09:05:54.551Z,33.50
2019-03-01T09:06:51.308Z,32.81
2019-03-01T09:07:48.024Z,32.00
2019-03-01T09:08:46.276Z,31.12
2019-03-01T09:09:43.617Z,30.25
2019-03-01T09:10:40.247Z,29.63
2019-03-01T09:11:36.987Z,29.81
2019-03-01T09:12:33.699Z,30.75
2019-03-01T09:13:30.363Z,32.25
2019-03-01T09:14:27.563Z,33.75
2019-03-01T09:15:24.549Z,35.00
2019-03-01T09:16:21.418Z,35.56
2019-03-01T09:17:18.100Z,35.63
2019-03-01T09:18:15.418Z,35.44
2019-03-01T09:19:12.175Z,35.06
2019-03-01T09:20:08.828Z,34.69
2019-03-01T09:21:06.266Z,34.19
2019-03-01T09:22:03.137Z,33.63
2019-03-01T09:22:59.939Z,33.00
2019-03-01T09:23:56.637Z,32.31
2019-03-01T09:24:53.441Z,31.56
2019-03-01T09:25:50.174Z,30.75
2019-03-01T09:26:46.892Z,30.00
2019-03-01T09:27:43.552Z,29.56
2019-03-01T09:28:40.334Z,30.00
2019-03-01T09:29:41.768Z,31.12
2019-03-01T09:30:35.537Z,32.63
2019-03-01T09:31:32.208Z,34.13
2019-03-01T09:32:30.464Z,35.25
2019-03-01T09:33:27.561Z,35.75
2019-03-01T09:34:24.317Z,35.69
2019-03-01T09:35:39.689Z,35.44
2019-03-01T09:36:44.116Z,34.88
2019-03-01T09:37:40.861Z,34.31
2019-03-01T09:38:39.493Z,33.69
2019-03-01T09:39:36.156Z,33.06
2019-03-01T09:40:32.884Z,32.31
2019-03-01T09:41:29.500Z,31.62
2019-03-01T09:42:26.385Z,31.06
2019-03-01T09:43:24.775Z,30.62
2019-03-01T09:44:22.167Z,30.31
2019-03-01T09:45:19.411Z,30.06
2019-03-01T09:46:16.254Z,29.87
2019-03-01T09:47:12.871Z,29.69
2019-03-01T09:48:12.213Z,29.50
2019-03-01T09:49:08.197Z,29.37
2019-03-01T09:50:04.921Z,29.19
2019-03-01T09:51:01.798Z,29.06
2019-03-01T09:51:58.561Z,28.94
2019-03-01T09:52:55.606Z,28.81
2019-03-01T09:53:53.838Z,28.69
2019-03-01T09:54:50.583Z,28.56
2019-03-01T09:55:47.519Z,28.44
2019-03-01T09:56:44.143Z,28.31
2019-03-01T09:57:40.832Z,28.25
2019-03-01T09:58:37.563Z,28.75
2019-03-01T09:59:34.353Z,28.94
2019-03-01T10:00:31.123Z,28.94
2019-03-01T10:01:27.821Z,29.00
2019-03-01T10:02:24.570Z,29.37
2019-03-01T10:03:21.375Z,29.94
2019-03-01T10:04:18.083Z,29.37
2019-03-01T10:05:14.966Z,29.25
2019-03-01T10:06:11.618Z,29.69
2019-03-01T10:07:08.355Z,30.25
2019-03-01T10:08:05.064Z,30.62
2019-03-01T10:09:01.723Z,31.00
2019-03-01T10:09:58.603Z,31.19
2019-03-01T10:10:55.334Z,31.50
2019-03-01T10:11:52.071Z,32.13
2019-03-01T10:12:48.721Z,32.75
2019-03-01T10:13:45.370Z,33.19
2019-03-01T10:14:42.110Z,33.44
2019-03-01T10:15:38.935Z,33.56
2019-03-01T10:16:35.589Z,33.56
2019-03-01T10:17:32.455Z,33.50
2019-03-01T10:18:29.168Z,33.38
2019-03-01T10:19:25.855Z,33.06
2019-03-01T10:20:22.532Z,32.63
2019-03-01T10:21:19.296Z,32.00
2019-03-01T10:22:15.919Z,31.44
2019-03-01T10:23:12.824Z,30.94
2019-03-01T10:24:09.546Z,30.44
2019-03-01T10:25:06.162Z,30.00
2019-03-01T10:26:03.031Z,29.56
2019-03-01T10:26:59.659Z,29.06
2019-03-01T10:27:56.280Z,28.62
2019-03-01T10:28:53.016Z,28.19
2019-03-01T10:29:49.698Z,27.81
2019-03-01T10:30:46.356Z,27.50
2019-03-01T10:31:43.127Z,27.25
2019-03-01T10:32:39.727Z,27.00
2019-03-01T10:33:36.647Z,26.81
2019-03-01T10:34:33.311Z,26.69
2019-03-01T10:35:30.174Z,26.50
2019-03-01T10:36:26.885Z,26.37
2019-03-01T10:37:23.610Z,26.25
2019-03-01T10:38:20.337Z,26.19
2019-03-01T10:39:17.083Z,26.06
2019-03-01T10:40:13.806Z,26.00
2019-03-01T10:41:10.559Z,25.88
2019-03-01T10:42:07.252Z,25.81
2019-03-01T10:43:03.893Z,25.75
2019-03-01T10:44:00.917Z,25.62
2019-03-01T10:44:57.619Z,25.56
2019-03-01T10:45:54.443Z,25.50
2019-03-01T10:46:51.183Z,25.44
2019-03-01T10:47:47.894Z,25.37
2019-03-01T10:48:44.733Z,25.25
2019-03-01T10:49:41.452Z,25.19
2019-03-01T10:50:38.236Z,25.12
2019-03-01T10:51:34.888Z,25.06
2019-03-01T10:52:31.579Z,25.00
2019-03-01T10:53:28.238Z,24.94
2019-03-01T10:54:25.028Z,24.87
2019-03-01T10:55:21.645Z,24.81
2019-03-01T10:56:18.302Z,24.75
2019-03-01T10:57:15.012Z,24.69
2019-03-01T10:58:11.637Z,24.63
2019-03-01T10:59:08.318Z,24.56
2019-03-01T11:00:05.010Z,24.50
2019-03-01T11:01:01.727Z,24.44
2019-03-01T11:01:58.460Z,24.37
2019-03-01T11:02:55.146Z,24.31
2019-03-01T11:03:52.018Z,24.25
2019-03-01T11:04:48.729Z,24.19
2019-03-01T11:05:45.446Z,24.19
2019-03-01T11:06:42.088Z,24.12
2019-03-01T11:07:38.914Z,24.06
2019-03-01T11:08:35.544Z,24.00
2019-03-01T11:09:32.464Z,23.94
2019-03-01T11:10:29.173Z,23.87
2019-03-01T11:11:25.810Z,23.81
2019-03-01T11:12:22.466Z,23.81
2019-03-01T11:13:19.608Z,23.75
2019-03-01T11:14:16.352Z,23.69
2019-03-01T11:15:13.099Z,23.62
2019-03-01T11:16:09.723Z,23.62
2019-03-01T11:17:06.371Z,23.56
2019-03-01T11:18:03.374Z,23.50
2019-03-01T11:18:59.998Z,23.44
2019-03-01T11:19:56.725Z,23.44
2019-03-01T11:20:53.421Z,23.38
2019-03-01T11:21:50.150Z,23.31
2019-03-01T11:22:46.866Z,23.31
2019-03-01T11:23:43.537Z,23.25
2019-03-01T11:24:40.164Z,23.19
2019-03-01T11:25:37.091Z,23.19
2019-03-01T11:26:33.843Z,23.12
2019-03-01T11:27:30.610Z,23.06
2019-03-01T11:28:27.352Z,23.06
2019-03-01T11:29:24.086Z,23.00
2019-03-01T11:30:20.955Z,23.00
2019-03-01T11:31:17.651Z,22.94
2019-03-01T11:32:14.335Z,22.87
2019-03-01T11:33:11.170Z,22.87
2019-03-01T11:34:07.772Z,22.81
2019-03-01T11:35:04.425Z,22.75
2019-03-01T11:36:01.400Z,22.75
2019-03-01T11:36:58.150Z,22.69
2019-03-01T11:37:54.807Z,22.69
2019-03-01T11:38:51.510Z,22.62
2019-03-01T11:39:48.157Z,22.56
2019-03-01T11:40:45.067Z,22.56
2019-03-01T11:41:41.818Z,22.50
2019-03-01T11:42:38.579Z,22.50
2019-03-01T11:43:35.386Z,22.44
2019-03-01T11:44:32.016Z,22.44
2019-03-01T11:45:28.917Z,22.37
2019-03-01T11:46:25.795Z,22.37
2019-03-01T11:47:22.497Z,22.31
2019-03-01T11:48:19.279Z,22.25
2019-03-01T11:49:16.004Z,22.25
2019-03-01T11:50:12.750Z,22.19
2019-03-01T11:51:09.488Z,22.19
2019-03-01T11:52:06.204Z,22.13
2019-03-01T11:53:02.897Z,22.13
2019-03-01T11:53:59.604Z,22.13
2019-03-01T11:54:56.286Z,22.06
2019-03-01T11:55:53.094Z,22.06
2019-03-01T11:56:49.857Z,22.00
2019-03-01T11:57:46.617Z,22.00
2019-03-01T11:58:43.311Z,21.94
2019-03-01T11:59:39.964Z,21.94
2019-03-01T12:00:37.027Z,21.87
2019-03-01T12:01:33.714Z,21.87
2019-03-01T12:02:30.440Z,21.87
2019-03-01T12:03:27.151Z,21.81
2019-03-01T12:04:23.903Z,21.81
2019-03-01T12:05:20.571Z,21.75
2019-03-01T12:06:17.343Z,21.75
2019-03-01T12:07:14.095Z,21.75
2019-03-01T12:08:10.797Z,21.69
2019-03-01T12:09:08.961Z,21.69
2019-03-01T12:10:05.687Z,21.69
2019-03-01T12:11:02.323Z,21.62
2019-03-01T12:11:59.063Z,21.62
2019-03-01T12:12:55.891Z,21.56
2019-03-01T12:13:52.590Z,21.56